Terminal Aerodrome Forecast
Issued by NWS

Home | Current Version | Previous Version | Text Only | Print | Product List | Glossary On
Versions: 1 2 3 4 5 6 7 8 9 10 11 12 13 14
000
FTUS44 KLZK 281121
TAFADF
TAF
KADF 281121Z 2812/2912 VRB02KT 5SM BR SCT004 OVC040
      TEMPO 2812/2814 2SM BR BKN004
     FM281400 22006KT P6SM VCTS SCT050CB OVC100
     FM290100 23006KT P6SM BKN050
     FM290800 22002KT P6SM VCSH SCT012 SCT050
      TEMPO 2908/2912 3SM BR BKN012=

USA.gov is the U.S. government's official web portal to all federal, state and local government web resources and services.